Allendale, SC (29810)

4:44 PM EST on February 10, 2016 (GMT -0500)
JCO Farms | | Change Station
CLOSE
Current Station
Personal Weather Station
Location: Fairfax, SC
Elevation: 167 ft
Nearby Weather Stations
Active Advisory: Flood Warning, Special Statement

Elev 167 ft 32.99 °N, 81.29 °W | Updated 6 seconds ago

Clear
Clear
43.7 °F
Feels Like 37 °F
N
13.9
Wind Variable Wind from West
Gusts 17.4 mph

Today
High -- | Low -- °F
--% Chance of Precip.
Yesterday
High -- | Low -- °F
Precip. -- in
Pressure 30.10 in
Visibility 10.0 miles
Clouds Clear
Windchill 37 °F
Dew Point 16 °F
Humidity 33%
Rainfall 0.00 in
Snow Depth Not available.
7:13 AM 6:05 PM
Waxing Crescent, 7% visible
METAR KJYL 102135Z AUTO 29013G23KT 10SM CLR 06/M08 A3010 RMK AO2 T00581084
Pressure 30.10 in
Visibility 10.0 miles
Clouds Clear
Windchill 37 °F
Dew Point 16 °F
Humidity 33%
Rainfall 0.00 in
Snow Depth Not available.
7:13 AM 6:05 PM
Waxing Crescent, 7% visible
METAR KJYL 102135Z AUTO 29013G23KT 10SM CLR 06/M08 A3010 RMK AO2 T00581084

10-Day Weather Forecast

Almanac

Astronomy

Feb. 10, 2016 Rise Set
Actual Time
Civil Twilight
Nautical Twilight
Astronomical Twilight
Moon
Length of Visible Light
Length of Day
Tomorrow will be .
, % of the Moon is Illuminated

Today's Extremes

State Highs State Lows

Community

WunderPhotos

Upload Photos

1,891,951 photos uploaded!

WunderBlog® & News

Nearby

Air Quality

  Air Quality AQ Index Pollutant
Not available.

Snow Depth

Station Depth Elevation

Earthquake Activity

City Distance Mag. Time & Date
Minimum magnitude displayed is 2.5.

Coastal Water Temperatures

Place Temperature

Stations

Nearby Weather Stations

Station Location Temp. Windchill Dew Point Humidity Wind Precip. Elev Updated Type
                   

Watches & Warnings

Flood Warning
Issued: 9:39 AM EST Feb. 10, 2016 – National Weather Service

The Flood Warning continues for
the Savannah River at Burtons Ferry.
* At 9 am Wednesday the stage was 15.9 feet.
* Flood stage is 15.0 feet.
* Minor flooding is occurring.
* Forecast, the river will remain nearly steady or slowly fall.
* At 15.0 feet, flooding of some adjacent agricultural lands occurs.
Most boat ramps along the river are unusable.


Lat... Lon 3303 8156 3307 8150 3292 8143 3276 8137
          3273 8145 3289 8151




Special Statement
Issued: 10:48 AM EST Feb. 10, 2016 – National Weather Service

... Breezy conditions through this afternoon...

West winds are expected to gust as high as around 35 mph through
this afternoon... with a few higher gusts possible... especially on
elevated roadways such as bridges and overpasses. This will make
driving high profile vehicles difficult and could lead to some
weak trees falling due to the wet soil across the area.

Precautionary/preparedness actions...

Be careful when driving high profile vehicles across bridges and
overpasses. Be alert for the possibility that some weak trees
could fall.